62.5°F
Current conditions from King Hill
Updated every 5 minutes
 
  Wednesday September 3, 2014

Station Historical Data
Daily Summary for May 7, 2011 Units:  English    Metric   Both
« Previous Day
Next Day »
Daily Weekly Monthly Yearly Custom
  High: Low: Average:
Temperature: 64.2 °F 44.0 °F 54.3 °F
Dew Point: 45.1 °F 37.3 °F 41.7 °F
Humidity: 82% 42% 64%
Wind Speed: 8.0mph 0.0mph 3.4mph
Wind Gust: 14.0mph - -
Wind- - WSW
Pressure: 29.84 in 29.75 in -
Precipitation: 0.00 in    
Historical Graphs
 
 
Tabular Data for May 7, 2011
Time Temperature Dew Point Pressure Wind Wind Speed Wind Gust Humidity Daily Rainfall
00:00 49.9 °F 40.5 °F 29.77 in Calm     70% 0.00 in
00:05 49.3 °F 40.3 °F 29.77 in Calm     71% 0.00 in
00:10 48.7 °F 40.1 °F 29.77 in Calm     72% 0.00 in
00:15 48.7 °F 39.4 °F 29.77 in Calm     70% 0.00 in
00:20 48.8 °F 39.5 °F 29.77 in Calm     70% 0.00 in
00:25 48.6 °F 40.0 °F 29.77 in Calm     72% 0.00 in
00:30 48.7 °F 39.7 °F 29.77 in Calm     71% 0.00 in
00:35 48.8 °F 38.7 °F 29.76 in Calm     68% 0.00 in
00:40 49.2 °F 40.2 °F 29.77 in Calm     71% 0.00 in
00:45 48.7 °F 39.0 °F 29.77 in Calm     69% 0.00 in
00:50 47.9 °F 39.7 °F 29.76 in SSW 1.0 mph 2.0 mph 73% 0.00 in
00:55 47.8 °F 38.5 °F 29.76 in Calm   2.0 mph 70% 0.00 in
01:00 47.2 °F 38.6 °F 29.76 in Calm   2.0 mph 72% 0.00 in
01:05 46.9 °F 39.1 °F 29.76 in Calm   2.0 mph 74% 0.00 in
01:10 46.9 °F 38.4 °F 29.76 in Calm   2.0 mph 72% 0.00 in
01:15 46.2 °F 38.4 °F 29.76 in Calm     74% 0.00 in
01:20 45.6 °F 37.8 °F 29.76 in Calm   2.0 mph 74% 0.00 in
01:25 45.2 °F 37.8 °F 29.76 in Calm   2.0 mph 75% 0.00 in
01:30 45.4 °F 37.9 °F 29.76 in Calm     75% 0.00 in
01:35 45.8 °F 38.3 °F 29.76 in Calm   1.0 mph 75% 0.00 in
01:40 46.1 °F 38.3 °F 29.76 in SSW 1.0 mph 2.0 mph 74% 0.00 in
01:45 46.7 °F 38.9 °F 29.76 in Calm   2.0 mph 74% 0.00 in
01:50 47.1 °F 39.2 °F 29.76 in Calm   2.0 mph 74% 0.00 in
01:55 47.4 °F 39.2 °F 29.76 in Calm   2.0 mph 73% 0.00 in
02:00 47.5 °F 39.3 °F 29.76 in Calm   2.0 mph 73% 0.00 in
02:10 45.7 °F 38.9 °F 29.76 in Calm     77% 0.00 in
02:15 45.6 °F 38.8 °F 29.76 in Calm     77% 0.00 in
02:20 46.6 °F 39.1 °F 29.76 in Calm     75% 0.00 in
02:25 47.6 °F 39.7 °F 29.76 in Calm   1.0 mph 74% 0.00 in
02:30 47.5 °F 39.3 °F 29.76 in Calm   1.0 mph 73% 0.00 in
02:40 47.7 °F 38.4 °F 29.75 in Calm   2.0 mph 70% 0.00 in
02:45 47.4 °F 38.1 °F 29.75 in SSW 1.0 mph 2.0 mph 70% 0.00 in
02:50 47.4 °F 38.5 °F 29.75 in SSW 1.0 mph 2.0 mph 71% 0.00 in
02:55 47.9 °F 38.6 °F 29.75 in Calm   2.0 mph 70% 0.00 in
03:05 47.3 °F 38.0 °F 29.75 in Calm     70% 0.00 in
03:10 46.8 °F 37.9 °F 29.75 in Calm     71% 0.00 in
03:15 46.4 °F 37.5 °F 29.75 in Calm     71% 0.00 in
03:20 46.1 °F 37.6 °F 29.75 in Calm     72% 0.00 in
03:25 45.8 °F 37.3 °F 29.75 in Calm     72% 0.00 in
03:30 45.8 °F 37.3 °F 29.75 in Calm     72% 0.00 in
03:35 46.1 °F 37.9 °F 29.75 in Calm     73% 0.00 in
03:40 46.0 °F 38.2 °F 29.75 in Calm     74% 0.00 in
03:45 45.7 °F 37.9 °F 29.75 in Calm     74% 0.00 in
03:50 45.3 °F 37.5 °F 29.75 in Calm     74% 0.00 in
03:55 45.0 °F 37.9 °F 29.75 in Calm     76% 0.00 in
04:00 44.7 °F 37.9 °F 29.75 in Calm     77% 0.00 in
04:10 44.0 °F 37.6 °F 29.75 in Calm     78% 0.00 in
04:15 44.1 °F 38.0 °F 29.75 in Calm     79% 0.00 in
04:20 44.5 °F 38.7 °F 29.75 in Calm     80% 0.00 in
04:25 45.4 °F 38.9 °F 29.75 in Calm     78% 0.00 in
04:30 46.8 °F 40.0 °F 29.75 in Calm     77% 0.00 in
04:35 47.0 °F 39.8 °F 29.75 in Calm     76% 0.00 in
04:40 46.8 °F 39.6 °F 29.75 in Calm     76% 0.00 in
04:45 46.3 °F 38.8 °F 29.75 in Calm     75% 0.00 in
04:50 46.1 °F 39.0 °F 29.75 in Calm     76% 0.00 in
04:55 46.0 °F 38.5 °F 29.75 in Calm     75% 0.00 in
05:05 46.4 °F 38.6 °F 29.75 in Calm     74% 0.00 in
05:10 46.3 °F 38.8 °F 29.75 in Calm     75% 0.00 in
05:20 46.1 °F 39.0 °F 29.75 in Calm     76% 0.00 in
05:25 46.0 °F 38.9 °F 29.75 in Calm     76% 0.00 in
05:35 45.9 °F 38.4 °F 29.75 in Calm     75% 0.00 in
05:40 45.8 °F 38.7 °F 29.75 in Calm     76% 0.00 in
05:45 45.8 °F 39.0 °F 29.75 in SSW 1.0 mph 2.0 mph 77% 0.00 in
05:50 45.9 °F 38.8 °F 29.75 in Calm   2.0 mph 76% 0.00 in
05:55 45.9 °F 39.4 °F 29.75 in Calm   1.0 mph 78% 0.00 in
06:00 45.8 °F 39.3 °F 29.75 in Calm     78% 0.00 in
06:05 45.7 °F 39.6 °F 29.75 in SSW 1.0 mph 2.0 mph 79% 0.00 in
06:10 45.7 °F 39.9 °F 29.75 in SSW 1.0 mph 2.0 mph 80% 0.00 in
06:20 45.8 °F 40.0 °F 29.75 in Calm     80% 0.00 in
06:25 45.8 °F 40.0 °F 29.75 in Calm     80% 0.00 in
06:30 45.8 °F 40.3 °F 29.75 in Calm     81% 0.00 in
06:35 46.0 °F 40.5 °F 29.75 in Calm     81% 0.00 in
06:40 46.1 °F 40.9 °F 29.76 in Calm     82% 0.00 in
06:45 46.4 °F 40.9 °F 29.76 in Calm     81% 0.00 in
06:55 48.1 °F 40.9 °F 29.76 in SSW 1.0 mph 3.0 mph 76% 0.00 in
07:00 48.8 °F 40.9 °F 29.76 in Calm   3.0 mph 74% 0.00 in
07:05 49.7 °F 40.0 °F 29.76 in SSW 1.0 mph 3.0 mph 69% 0.00 in
07:10 50.5 °F 41.1 °F 29.76 in Calm   3.0 mph 70% 0.00 in
07:15 51.2 °F 41.0 °F 29.76 in SSW 2.0 mph 3.0 mph 68% 0.00 in
07:20 51.8 °F 44.1 °F 29.76 in Calm   3.0 mph 75% 0.00 in
07:25 51.1 °F 43.1 °F 29.77 in WNW 1.0 mph 3.0 mph 74% 0.00 in
07:30 49.8 °F 40.8 °F 29.76 in Calm   2.0 mph 71% 0.00 in
07:35 49.6 °F 42.4 °F 29.77 in Calm     76% 0.00 in
07:40 49.7 °F 41.8 °F 29.77 in Calm     74% 0.00 in
07:45 49.9 °F 42.3 °F 29.77 in Calm     75% 0.00 in
07:50 50.4 °F 41.4 °F 29.77 in WNW 1.0 mph 2.0 mph 71% 0.00 in
07:55 52.0 °F 40.6 °F 29.77 in WNW 1.0 mph 4.0 mph 65% 0.00 in
08:00 53.2 °F 40.1 °F 29.77 in WNW 3.0 mph 7.0 mph 61% 0.00 in
08:05 53.7 °F 40.2 °F 29.77 in WNW 5.0 mph 9.0 mph 60% 0.00 in
08:15 54.0 °F 40.4 °F 29.78 in West 5.0 mph 10.0 mph 60% 0.00 in
08:20 54.1 °F 41.4 °F 29.78 in WNW 5.0 mph 10.0 mph 62% 0.00 in
08:25 54.3 °F 42.0 °F 29.78 in West 4.0 mph 9.0 mph 63% 0.00 in
08:30 54.3 °F 41.6 °F 29.78 in WNW 6.0 mph 13.0 mph 62% 0.00 in
08:35 54.3 °F 42.0 °F 29.78 in NW 7.0 mph 13.0 mph 63% 0.00 in
08:40 54.6 °F 43.1 °F 29.78 in West 4.0 mph 11.0 mph 65% 0.00 in
08:45 54.8 °F 43.3 °F 29.78 in WNW 7.0 mph 11.0 mph 65% 0.00 in
08:50 54.7 °F 42.8 °F 29.78 in WNW 7.0 mph 13.0 mph 64% 0.00 in
09:00 55.2 °F 42.8 °F 29.79 in WNW 8.0 mph 12.0 mph 63% 0.00 in
09:05 55.0 °F 42.6 °F 29.79 in West 6.0 mph 12.0 mph 63% 0.00 in
09:10 54.9 °F 43.0 °F 29.79 in WNW 6.0 mph 12.0 mph 64% 0.00 in
09:15 54.6 °F 42.7 °F 29.79 in West 3.0 mph 12.0 mph 64% 0.00 in
09:20 55.1 °F 42.3 °F 29.79 in NW 6.0 mph 11.0 mph 62% 0.00 in
09:25 55.5 °F 42.7 °F 29.79 in WNW 7.0 mph 11.0 mph 62% 0.00 in
09:30 55.9 °F 43.5 °F 29.78 in SW 4.0 mph 11.0 mph 63% 0.00 in
09:35 56.6 °F 44.2 °F 29.79 in West 4.0 mph 11.0 mph 63% 0.00 in
09:40 57.3 °F 44.4 °F 29.78 in West 2.0 mph 10.0 mph 62% 0.00 in
09:45 57.5 °F 42.8 °F 29.78 in West 2.0 mph 10.0 mph 58% 0.00 in
09:50 57.1 °F 42.9 °F 29.78 in WNW 5.0 mph 8.0 mph 59% 0.00 in
09:55 57.1 °F 44.2 °F 29.79 in WNW 4.0 mph 7.0 mph 62% 0.00 in
10:00 57.1 °F 43.4 °F 29.79 in West 5.0 mph 8.0 mph 60% 0.00 in
10:05 57.1 °F 43.8 °F 29.79 in WNW 7.0 mph 12.0 mph 61% 0.00 in
10:10 57.0 °F 44.1 °F 29.79 in NW 6.0 mph 12.0 mph 62% 0.00 in
10:15 56.8 °F 44.3 °F 29.79 in NNW 3.0 mph 11.0 mph 63% 0.00 in
10:20 56.7 °F 43.4 °F 29.79 in NW 6.0 mph 11.0 mph 61% 0.00 in
10:25 56.0 °F 43.2 °F 29.79 in NW 2.0 mph 11.0 mph 62% 0.00 in
10:30 55.6 °F 42.8 °F 29.79 in West 4.0 mph 11.0 mph 62% 0.00 in
10:35 55.4 °F 43.4 °F 29.79 in WNW 3.0 mph 8.0 mph 64% 0.00 in
10:40 55.5 °F 43.1 °F 29.79 in WNW 2.0 mph 7.0 mph 63% 0.00 in
10:45 55.7 °F 43.3 °F 29.79 in West 3.0 mph 8.0 mph 63% 0.00 in
10:50 56.8 °F 43.9 °F 29.79 in WNW 6.0 mph 12.0 mph 62% 0.00 in
10:55 57.1 °F 43.8 °F 29.79 in WNW 6.0 mph 12.0 mph 61% 0.00 in
11:00 57.3 °F 43.5 °F 29.78 in West 3.0 mph 9.0 mph 60% 0.00 in
11:05 58.0 °F 44.2 °F 29.79 in WNW 6.0 mph 12.0 mph 60% 0.00 in
11:10 57.7 °F 43.9 °F 29.78 in WNW 7.0 mph 12.0 mph 60% 0.00 in
11:15 58.0 °F 43.8 °F 29.78 in West 8.0 mph 14.0 mph 59% 0.00 in
11:25 58.7 °F 43.5 °F 29.78 in WSW 5.0 mph 12.0 mph 57% 0.00 in
11:30 59.0 °F 44.3 °F 29.78 in WNW 4.0 mph 11.0 mph 58% 0.00 in
11:35 58.7 °F 43.5 °F 29.78 in NW 3.0 mph 11.0 mph 57% 0.00 in
11:40 58.9 °F 43.7 °F 29.78 in WNW 8.0 mph 13.0 mph 57% 0.00 in
11:45 58.9 °F 44.2 °F 29.78 in SW 2.0 mph 13.0 mph 58% 0.00 in
11:50 59.8 °F 44.5 °F 29.78 in WNW 3.0 mph 8.0 mph 57% 0.00 in
11:55 60.4 °F 44.6 °F 29.78 in West 6.0 mph 11.0 mph 56% 0.00 in
12:00 60.4 °F 45.1 °F 29.78 in NW 7.0 mph 11.0 mph 57% 0.00 in
12:05 60.5 °F 43.8 °F 29.77 in NNW 5.0 mph 11.0 mph 54% 0.00 in
12:10 60.9 °F 43.2 °F 29.77 in NW 1.0 mph 11.0 mph 52% 0.00 in
12:15 61.0 °F 43.8 °F 29.77 in WNW 6.0 mph 11.0 mph 53% 0.00 in
12:20 61.0 °F 43.3 °F 29.77 in WNW 7.0 mph 11.0 mph 52% 0.00 in
12:30 60.7 °F 42.5 °F 29.77 in SW 4.0 mph 8.0 mph 51% 0.00 in
12:35 60.9 °F 45.1 °F 29.77 in WSW 4.0 mph 12.0 mph 56% 0.00 in
12:40 61.4 °F 43.1 °F 29.77 in SW 5.0 mph 12.0 mph 51% 0.00 in
12:45 62.0 °F 44.2 °F 29.77 in NW 5.0 mph 11.0 mph 52% 0.00 in
12:50 61.5 °F 43.2 °F 29.77 in West 5.0 mph 9.0 mph 51% 0.00 in
12:55 61.4 °F 44.1 °F 29.77 in NW 4.0 mph 9.0 mph 53% 0.00 in
13:00 60.8 °F 43.6 °F 29.77 in NW 7.0 mph 13.0 mph 53% 0.00 in
13:05 60.4 °F 42.2 °F 29.77 in NW 6.0 mph 13.0 mph 51% 0.00 in
13:10 60.5 °F 43.3 °F 29.77 in West 7.0 mph 13.0 mph 53% 0.00 in
13:15 61.2 °F 43.9 °F 29.77 in West 2.0 mph 12.0 mph 53% 0.00 in
13:20 61.9 °F 42.5 °F 29.76 in WNW 3.0 mph 11.0 mph 49% 0.00 in
13:25 62.4 °F 42.5 °F 29.76 in WNW 1.0 mph 11.0 mph 48% 0.00 in
13:30 63.2 °F 40.9 °F 29.76 in NW 6.0 mph 11.0 mph 44% 0.00 in
13:35 63.5 °F 41.8 °F 29.76 in NW 6.0 mph 11.0 mph 45% 0.00 in
13:45 62.6 °F 40.4 °F 29.76 in NW 6.0 mph 13.0 mph 44% 0.00 in
13:50 61.8 °F 40.2 °F 29.76 in WNW 6.0 mph 12.0 mph 45% 0.00 in
14:00 61.9 °F 40.9 °F 29.76 in WNW 2.0 mph 11.0 mph 46% 0.00 in
14:05 61.8 °F 41.9 °F 29.75 in WNW 2.0 mph 12.0 mph 48% 0.00 in
14:10 63.1 °F 42.0 °F 29.76 in NW 3.0 mph 12.0 mph 46% 0.00 in
14:15 64.2 °F 42.4 °F 29.75 in NW 4.0 mph 11.0 mph 45% 0.00 in
14:20 64.0 °F 41.1 °F 29.76 in NW 5.0 mph 11.0 mph 43% 0.00 in
14:25 63.1 °F 40.9 °F 29.75 in NNE 2.0 mph 10.0 mph 44% 0.00 in
14:30 62.5 °F 41.5 °F 29.75 in NW 3.0 mph 9.0 mph 46% 0.00 in
14:35 62.0 °F 41.0 °F 29.75 in NNW 3.0 mph 7.0 mph 46% 0.00 in
14:40 61.5 °F 41.1 °F 29.75 in NNW 3.0 mph 12.0 mph 47% 0.00 in
14:45 61.3 °F 42.0 °F 29.75 in NW 4.0 mph 12.0 mph 49% 0.00 in
14:50 61.3 °F 41.5 °F 29.75 in NNW 6.0 mph 11.0 mph 48% 0.00 in
14:55 61.2 °F 41.9 °F 29.75 in NNW 4.0 mph 12.0 mph 49% 0.00 in
15:00 61.5 °F 41.6 °F 29.75 in North 4.0 mph 12.0 mph 48% 0.00 in
15:05 61.5 °F 41.6 °F 29.75 in NW 4.0 mph 9.0 mph 48% 0.00 in
15:10 61.4 °F 41.0 °F 29.75 in NW 4.0 mph 9.0 mph 47% 0.00 in
15:15 60.9 °F 41.6 °F 29.75 in NW 4.0 mph 9.0 mph 49% 0.00 in
15:20 60.8 °F 41.0 °F 29.75 in NNW 5.0 mph 8.0 mph 48% 0.00 in
15:25 60.8 °F 40.5 °F 29.75 in NW 5.0 mph 9.0 mph 47% 0.00 in
15:30 60.7 °F 39.8 °F 29.75 in NNW 3.0 mph 11.0 mph 46% 0.00 in
15:35 60.9 °F 41.1 °F 29.75 in NW 2.0 mph 11.0 mph 48% 0.00 in
15:40 60.7 °F 39.8 °F 29.75 in NW 7.0 mph 10.0 mph 46% 0.00 in
15:45 60.6 °F 40.8 °F 29.75 in NW 3.0 mph 10.0 mph 48% 0.00 in
15:50 60.9 °F 40.5 °F 29.75 in NNW 2.0 mph 8.0 mph 47% 0.00 in
16:00 63.1 °F 41.4 °F 29.75 in NW 4.0 mph 13.0 mph 45% 0.00 in
16:05 63.6 °F 41.9 °F 29.75 in North 3.0 mph 13.0 mph 45% 0.00 in
16:10 63.5 °F 42.4 °F 29.75 in NNW 2.0 mph 10.0 mph 46% 0.00 in
16:15 62.8 °F 40.6 °F 29.75 in NNW 3.0 mph 12.0 mph 44% 0.00 in
16:20 62.6 °F 41.0 °F 29.75 in NNW 5.0 mph 13.0 mph 45% 0.00 in
16:25 63.2 °F 40.9 °F 29.75 in NW 3.0 mph 13.0 mph 44% 0.00 in
16:35 63.6 °F 40.7 °F 29.75 in NNW 4.0 mph 13.0 mph 43% 0.00 in
16:40 63.5 °F 41.8 °F 29.75 in NNW 6.0 mph 13.0 mph 45% 0.00 in
16:45 63.3 °F 41.0 °F 29.75 in NW 5.0 mph 10.0 mph 44% 0.00 in
16:50 63.2 °F 40.9 °F 29.75 in North 2.0 mph 10.0 mph 44% 0.00 in
16:55 63.7 °F 40.2 °F 29.76 in NW 2.0 mph 8.0 mph 42% 0.00 in
17:00 63.9 °F 41.0 °F 29.76 in NW 4.0 mph 8.0 mph 43% 0.00 in
17:05 63.6 °F 41.3 °F 29.76 in NW 4.0 mph 9.0 mph 44% 0.00 in
17:10 63.5 °F 41.8 °F 29.76 in NW 5.0 mph 12.0 mph 45% 0.00 in
17:15 63.8 °F 40.9 °F 29.76 in North 3.0 mph 12.0 mph 43% 0.00 in
17:20 64.1 °F 42.3 °F 29.76 in North 2.0 mph 7.0 mph 45% 0.00 in
17:25 64.0 °F 41.7 °F 29.76 in NNW 5.0 mph 10.0 mph 44% 0.00 in
17:30 63.4 °F 42.8 °F 29.76 in North 2.0 mph 10.0 mph 47% 0.00 in
17:35 63.2 °F 42.1 °F 29.76 in NE 3.0 mph 10.0 mph 46% 0.00 in
17:40 62.1 °F 42.2 °F 29.77 in NNE 2.0 mph 10.0 mph 48% 0.00 in
17:45 61.4 °F 42.1 °F 29.77 in NNW 1.0 mph 9.0 mph 49% 0.00 in
17:50 60.7 °F 41.4 °F 29.77 in NNW 2.0 mph 7.0 mph 49% 0.00 in
17:55 60.5 °F 41.8 °F 29.77 in NNW 2.0 mph 7.0 mph 50% 0.00 in
18:00 60.5 °F 41.8 °F 29.77 in NNW 1.0 mph 7.0 mph 50% 0.00 in
18:10 61.2 °F 40.8 °F 29.77 in North 1.0 mph 8.0 mph 47% 0.00 in
18:15 61.1 °F 41.3 °F 29.77 in NNW 2.0 mph 7.0 mph 48% 0.00 in
18:20 60.6 °F 41.3 °F 29.77 in North 3.0 mph 7.0 mph 49% 0.00 in
18:25 60.2 °F 41.5 °F 29.77 in NNW 3.0 mph 8.0 mph 50% 0.00 in
18:30 59.9 °F 41.7 °F 29.78 in North 1.0 mph 8.0 mph 51% 0.00 in
18:35 59.4 °F 41.8 °F 29.78 in NW 1.0 mph 5.0 mph 52% 0.00 in
18:40 59.0 °F 42.4 °F 29.78 in North 1.0 mph 4.0 mph 54% 0.00 in
18:45 58.8 °F 42.2 °F 29.78 in Calm   7.0 mph 54% 0.00 in
18:50 58.5 °F 42.4 °F 29.78 in NNE 2.0 mph 7.0 mph 55% 0.00 in
18:55 58.2 °F 42.6 °F 29.79 in NNW 3.0 mph 7.0 mph 56% 0.00 in
19:00 57.9 °F 42.8 °F 29.79 in North 3.0 mph 9.0 mph 57% 0.00 in
19:05 57.6 °F 42.5 °F 29.79 in North 1.0 mph 9.0 mph 57% 0.00 in
19:10 57.3 °F 42.7 °F 29.79 in NNE 1.0 mph 8.0 mph 58% 0.00 in
19:15 57.0 °F 43.3 °F 29.80 in NNE 2.0 mph 5.0 mph 60% 0.00 in
19:25 56.6 °F 43.3 °F 29.80 in NNW 1.0 mph 11.0 mph 61% 0.00 in
19:30 56.4 °F 43.6 °F 29.81 in Calm   9.0 mph 62% 0.00 in
19:35 56.1 °F 44.1 °F 29.81 in North 1.0 mph 9.0 mph 64% 0.00 in
19:40 55.8 °F 44.2 °F 29.81 in NE 1.0 mph 7.0 mph 65% 0.00 in
19:45 55.5 °F 43.9 °F 29.81 in NE 3.0 mph 7.0 mph 65% 0.00 in
19:50 55.3 °F 44.5 °F 29.81 in Calm   7.0 mph 67% 0.00 in
20:00 54.5 °F 43.8 °F 29.81 in North 4.0 mph 7.0 mph 67% 0.00 in
20:05 54.5 °F 44.2 °F 29.82 in Calm   7.0 mph 68% 0.00 in
20:10 54.4 °F 44.1 °F 29.82 in NNE 1.0 mph 5.0 mph 68% 0.00 in
20:15 54.2 °F 43.9 °F 29.82 in Calm   5.0 mph 68% 0.00 in
20:20 54.3 °F 44.4 °F 29.82 in Calm   4.0 mph 69% 0.00 in
20:25 54.2 °F 44.3 °F 29.82 in NE 1.0 mph 5.0 mph 69% 0.00 in
20:30 54.2 °F 43.9 °F 29.82 in Calm   5.0 mph 68% 0.00 in
20:35 54.1 °F 44.2 °F 29.83 in NNE 1.0 mph 5.0 mph 69% 0.00 in
20:45 54.1 °F 44.5 °F 29.83 in Calm   3.0 mph 70% 0.00 in
20:55 53.9 °F 44.3 °F 29.83 in NE 1.0 mph 4.0 mph 70% 0.00 in
21:00 53.7 °F 44.2 °F 29.83 in Calm   4.0 mph 70% 0.00 in
21:10 53.7 °F 44.5 °F 29.83 in Calm     71% 0.00 in
21:15 53.6 °F 44.4 °F 29.83 in Calm   4.0 mph 71% 0.00 in
21:20 53.6 °F 44.4 °F 29.83 in Calm   5.0 mph 71% 0.00 in
21:25 53.4 °F 44.2 °F 29.83 in NE 1.0 mph 5.0 mph 71% 0.00 in
21:30 53.2 °F 44.0 °F 29.83 in Calm   4.0 mph 71% 0.00 in
21:35 53.0 °F 44.2 °F 29.83 in NE 1.0 mph 4.0 mph 72% 0.00 in
21:45 52.4 °F 44.4 °F 29.83 in Calm   4.0 mph 74% 0.00 in
21:50 52.0 °F 44.0 °F 29.83 in Calm   1.0 mph 74% 0.00 in
21:55 51.9 °F 43.9 °F 29.83 in NE 1.0 mph 3.0 mph 74% 0.00 in
22:00 51.9 °F 44.2 °F 29.83 in NE 2.0 mph 4.0 mph 75% 0.00 in
22:05 52.1 °F 44.4 °F 29.83 in NE 1.0 mph 4.0 mph 75% 0.00 in
22:10 52.1 °F 44.4 °F 29.83 in NE 1.0 mph 5.0 mph 75% 0.00 in
22:15 51.9 °F 44.6 °F 29.83 in NE 1.0 mph 5.0 mph 76% 0.00 in
22:20 51.9 °F 44.6 °F 29.83 in Calm   4.0 mph 76% 0.00 in
22:25 51.9 °F 44.6 °F 29.83 in NE 1.0 mph 4.0 mph 76% 0.00 in
22:30 51.9 °F 44.6 °F 29.83 in NE 1.0 mph 4.0 mph 76% 0.00 in
22:35 51.9 °F 44.6 °F 29.83 in Calm   5.0 mph 76% 0.00 in
22:40 51.9 °F 44.6 °F 29.83 in Calm   5.0 mph 76% 0.00 in
22:45 51.7 °F 45.1 °F 29.83 in NNE 1.0 mph 4.0 mph 78% 0.00 in
22:50 51.5 °F 44.9 °F 29.83 in Calm   4.0 mph 78% 0.00 in
22:55 51.4 °F 45.1 °F 29.83 in Calm   4.0 mph 79% 0.00 in
23:00 51.3 °F 45.0 °F 29.83 in North 1.0 mph 4.0 mph 79% 0.00 in
23:05 51.3 °F 45.0 °F 29.83 in ENE 1.0 mph 5.0 mph 79% 0.00 in
23:10 51.3 °F 45.0 °F 29.84 in NE 1.0 mph 5.0 mph 79% 0.00 in
23:15 51.2 °F 44.9 °F 29.84 in Calm   5.0 mph 79% 0.00 in
23:20 51.2 °F 44.9 °F 29.84 in Calm   4.0 mph 79% 0.00 in
23:25 51.1 °F 44.8 °F 29.84 in Calm   4.0 mph 79% 0.00 in
23:30 50.9 °F 44.6 °F 29.84 in Calm   4.0 mph 79% 0.00 in
23:35 50.8 °F 44.9 °F 29.84 in Calm   1.0 mph 80% 0.00 in
23:40 50.6 °F 44.7 °F 29.84 in Calm     80% 0.00 in
23:45 50.5 °F 44.6 °F 29.84 in Calm   1.0 mph 80% 0.00 in
23:50 50.4 °F 44.5 °F 29.84 in Calm   1.0 mph 80% 0.00 in
23:55 50.3 °F 44.4 °F 29.84 in Calm     80% 0.00 in
Westford Weather
Compliments of Weather Underground

 
 
Current Radar Loop:

Copyright © WestfordWeather.net 2007-2014. All rights reserved.